createdAt,value
2022-09-06T00:00:53.138Z,17.00
2022-09-06T00:03:22.543Z,17.02
2022-09-06T00:05:51.423Z,17.05
2022-09-06T00:08:19.019Z,17.09
2022-09-06T00:10:48.587Z,17.35
2022-09-06T00:13:16.509Z,17.36
2022-09-06T00:15:44.498Z,17.51
2022-09-06T00:18:11.832Z,17.66
2022-09-06T00:20:41.648Z,17.88
2022-09-06T00:23:09.186Z,17.99
2022-09-06T00:25:36.801Z,18.08
2022-09-06T00:28:06.218Z,18.12
2022-09-06T00:30:34.186Z,18.07
2022-09-06T00:33:01.357Z,17.85
2022-09-06T00:35:29.587Z,17.93
2022-09-06T00:38:01.659Z,17.82
2022-09-06T00:40:30.666Z,17.71
2022-09-06T00:42:58.135Z,17.71
2022-09-06T00:45:28.123Z,17.53
2022-09-06T00:47:55.763Z,17.36
2022-09-06T00:50:23.139Z,17.25
2022-09-06T00:52:52.834Z,17.20
2022-09-06T00:55:20.826Z,17.18
2022-09-06T00:57:51.544Z,17.26
2022-09-06T01:00:20.307Z,17.10
2022-09-06T01:02:48.920Z,17.14
2022-09-06T01:05:17.072Z,17.07
2022-09-06T01:07:44.181Z,17.07
2022-09-06T01:10:51.409Z,17.05
2022-09-06T01:13:46.812Z,16.98
2022-09-06T01:16:19.057Z,16.92
2022-09-06T01:19:09.598Z,16.97
2022-09-06T01:21:55.930Z,16.96
2022-09-06T01:24:41.771Z,17.11
2022-09-06T01:27:27.246Z,17.23
2022-09-06T01:30:14.561Z,17.28
2022-09-06T01:33:13.881Z,17.30
2022-09-06T01:35:51.321Z,17.15
2022-09-06T01:38:19.577Z,17.08
2022-09-06T01:40:46.696Z,17.11
2022-09-06T01:43:22.588Z,17.07
2022-09-06T01:46:01.656Z,16.96
2022-09-06T01:48:51.163Z,17.05
2022-09-06T01:51:24.523Z,17.07
2022-09-06T01:53:51.632Z,17.09
2022-09-06T01:56:30.520Z,17.04
2022-09-06T01:59:28.477Z,17.13
2022-09-06T02:02:11.077Z,17.10
2022-09-06T02:04:53.078Z,16.97
2022-09-06T02:07:29.933Z,17.07
2022-09-06T02:10:24.770Z,17.08
2022-09-06T02:12:56.793Z,17.09
2022-09-06T02:15:29.667Z,16.87
2022-09-06T02:18:04.795Z,17.05
2022-09-06T02:20:35.529Z,17.01
2022-09-06T02:23:06.595Z,17.12
2022-09-06T02:25:44.323Z,17.19
2022-09-06T02:28:12.924Z,17.21
2022-09-06T02:30:45.494Z,17.22
2022-09-06T02:33:21.607Z,17.18
2022-09-06T02:35:52.007Z,17.14
2022-09-06T02:38:22.745Z,17.09
2022-09-06T02:40:55.070Z,16.94
2022-09-06T02:43:25.846Z,17.04
2022-09-06T02:45:53.139Z,16.99
2022-09-06T02:48:20.400Z,17.15
2022-09-06T02:50:47.514Z,17.25
2022-09-06T02:53:19.138Z,17.32
2022-09-06T02:55:48.821Z,17.32
2022-09-06T02:58:16.454Z,17.48
2022-09-06T03:00:44.177Z,17.53
2022-09-06T03:03:12.191Z,17.61
2022-09-06T03:05:39.417Z,17.50
2022-09-06T03:08:06.601Z,17.27
2022-09-06T03:10:34.114Z,17.19
2022-09-06T03:13:01.271Z,17.06
2022-09-06T03:15:28.469Z,17.01
2022-09-06T03:17:59.803Z,16.96
2022-09-06T03:20:27.163Z,16.99
2022-09-06T03:22:54.353Z,17.03
2022-09-06T03:25:21.985Z,17.07
2022-09-06T03:27:49.261Z,16.99
2022-09-06T03:30:16.527Z,16.90
2022-09-06T03:32:43.894Z,16.86
2022-09-06T03:35:11.810Z,16.69
2022-09-06T03:37:39.087Z,16.57
2022-09-06T03:40:06.831Z,16.46
2022-09-06T03:42:34.228Z,16.42
2022-09-06T03:45:01.537Z,16.28
2022-09-06T03:47:30.954Z,16.21
2022-09-06T03:49:58.138Z,16.31
2022-09-06T03:52:25.284Z,16.26
2022-09-06T03:54:52.710Z,16.22
2022-09-06T03:57:20.099Z,16.21
2022-09-06T03:59:47.094Z,16.19
2022-09-06T04:02:14.871Z,16.13
2022-09-06T04:04:41.980Z,16.18
2022-09-06T04:07:09.338Z,16.15
2022-09-06T04:09:37.256Z,16.11
2022-09-06T04:12:05.106Z,16.12
2022-09-06T04:14:32.352Z,16.13
2022-09-06T04:16:59.864Z,16.18
2022-09-06T04:19:27.291Z,16.17
2022-09-06T04:21:54.840Z,16.19
2022-09-06T04:24:22.594Z,16.31
2022-09-06T04:26:50.219Z,16.30
2022-09-06T04:29:17.394Z,16.33
2022-09-06T04:31:44.703Z,16.39
2022-09-06T04:34:11.991Z,16.46
2022-09-06T04:36:39.432Z,16.60
2022-09-06T04:39:06.616Z,16.80
2022-09-06T04:41:33.833Z,16.97
2022-09-06T04:44:01.137Z,17.01
2022-09-06T04:46:30.316Z,17.07
2022-09-06T04:48:58.113Z,17.04
2022-09-06T04:51:25.923Z,17.00
2022-09-06T04:53:53.784Z,16.94
2022-09-06T04:56:23.742Z,16.98
2022-09-06T04:58:54.502Z,16.94
2022-09-06T05:01:21.854Z,16.97
2022-09-06T05:03:49.549Z,16.94
2022-09-06T05:06:22.983Z,16.91
2022-09-06T05:08:50.863Z,16.96
2022-09-06T05:11:18.730Z,16.97
2022-09-06T05:13:47.605Z,16.95
2022-09-06T05:16:15.417Z,16.96
2022-09-06T05:18:42.954Z,17.09
2022-09-06T05:21:11.648Z,17.27
2022-09-06T05:23:39.204Z,17.37
2022-09-06T05:26:07.026Z,17.47
2022-09-06T05:28:34.254Z,17.43
2022-09-06T05:31:09.369Z,17.45
2022-09-06T05:33:36.996Z,17.61
2022-09-06T05:36:05.782Z,17.63
2022-09-06T05:38:33.820Z,17.62
2022-09-06T05:41:01.268Z,17.67
2022-09-06T05:43:28.501Z,17.63
2022-09-06T05:45:55.842Z,17.70
2022-09-06T05:48:23.055Z,17.75
2022-09-06T05:51:03.674Z,17.62
2022-09-06T05:53:39.359Z,17.55
2022-09-06T05:56:07.475Z,17.68
2022-09-06T05:58:34.995Z,17.67
2022-09-06T06:01:29.952Z,17.82
2022-09-06T06:04:15.780Z,18.05
2022-09-06T06:06:43.099Z,18.17
2022-09-06T06:09:10.364Z,18.27
2022-09-06T06:11:38.055Z,18.41
2022-09-06T06:14:05.628Z,18.43
2022-09-06T06:16:33.500Z,18.38
2022-09-06T06:19:01.040Z,18.20
2022-09-06T06:21:29.974Z,18.35
2022-09-06T06:24:03.076Z,18.25
2022-09-06T06:26:32.908Z,18.20
2022-09-06T06:29:02.156Z,18.26
2022-09-06T06:31:31.392Z,18.32
2022-09-06T06:33:59.586Z,18.43
2022-09-06T06:36:30.905Z,18.50
2022-09-06T06:38:58.754Z,18.36
2022-09-06T06:41:28.918Z,18.43
2022-09-06T06:43:59.148Z,18.41
2022-09-06T06:46:29.291Z,18.48
2022-09-06T06:48:56.621Z,18.64
2022-09-06T06:51:26.697Z,18.76
2022-09-06T06:53:54.229Z,18.88
2022-09-06T06:56:30.280Z,19.11
2022-09-06T06:59:01.870Z,19.23
2022-09-06T07:01:36.105Z,19.50
2022-09-06T07:04:08.814Z,19.72
2022-09-06T07:12:32.497Z,20.40
2022-09-06T07:15:00.513Z,20.42
2022-09-06T07:17:28.683Z,20.41
2022-09-06T07:22:40.527Z,20.32
2022-09-06T07:25:09.339Z,20.34
2022-09-06T07:27:52.852Z,20.47
2022-09-06T07:30:20.547Z,20.60
2022-09-06T07:32:48.179Z,20.88
2022-09-06T07:35:15.590Z,20.96
2022-09-06T07:37:42.902Z,21.03
2022-09-06T07:40:10.697Z,21.13
2022-09-06T07:42:38.740Z,21.29
2022-09-06T07:45:06.183Z,21.32
2022-09-06T07:53:14.115Z,21.55
2022-09-06T07:55:43.395Z,21.64
2022-09-06T07:58:11.314Z,21.75
2022-09-06T08:00:43.175Z,21.84
2022-09-06T08:03:13.652Z,21.87
2022-09-06T08:11:16.154Z,22.10
2022-09-06T08:13:44.205Z,22.12
2022-09-06T08:16:12.636Z,21.96
2022-09-06T08:18:40.335Z,21.94
2022-09-06T08:21:13.566Z,21.94
2022-09-06T08:23:50.402Z,22.02
2022-09-06T08:26:21.003Z,22.20
2022-09-06T08:29:00.360Z,22.33
2022-09-06T08:31:30.509Z,22.37
2022-09-06T08:33:59.397Z,22.03
2022-09-06T08:36:29.663Z,22.56
2022-09-06T08:38:57.827Z,22.66
2022-09-06T08:41:26.523Z,22.74
2022-09-06T08:46:58.133Z,22.88
2022-09-06T08:49:31.975Z,23.01
2022-09-06T08:52:12.378Z,22.83
2022-09-06T08:55:03.775Z,23.05
2022-09-06T08:58:08.918Z,23.06
2022-09-06T09:00:38.624Z,23.09
2022-09-06T09:03:17.120Z,23.19
2022-09-06T09:05:50.686Z,23.14
2022-09-06T09:08:53.661Z,23.08
2022-09-06T09:11:25.569Z,23.21
2022-09-06T09:14:10.661Z,23.14
2022-09-06T09:16:38.494Z,23.15
2022-09-06T09:19:06.633Z,23.19
2022-09-06T09:21:37.527Z,22.91
2022-09-06T09:24:13.471Z,23.12
2022-09-06T09:27:13.951Z,23.17
2022-09-06T09:32:45.224Z,23.45
2022-09-06T09:35:21.626Z,23.48
2022-09-06T09:37:59.445Z,23.54
2022-09-06T09:40:49.414Z,23.52
2022-09-06T09:43:19.594Z,23.52
2022-09-06T09:45:58.786Z,23.47
2022-09-06T09:48:28.178Z,23.51
2022-09-06T09:50:56.185Z,23.61
2022-09-06T09:53:24.402Z,23.55
2022-09-06T09:55:59.336Z,23.51
2022-09-06T09:58:32.249Z,23.51
2022-09-06T10:01:21.851Z,23.47
2022-09-06T10:09:35.896Z,23.57
2022-09-06T10:12:03.814Z,23.63
2022-09-06T10:14:42.076Z,23.53
2022-09-06T10:17:19.807Z,23.65
2022-09-06T10:19:47.546Z,23.64
2022-09-06T10:22:26.138Z,23.72
2022-09-06T10:25:28.728Z,23.76
2022-09-06T10:28:12.367Z,23.85
2022-09-06T10:31:02.391Z,23.77
2022-09-06T10:33:39.548Z,23.72
2022-09-06T10:36:07.871Z,23.88
2022-09-06T10:38:43.893Z,23.97
2022-09-06T10:41:13.738Z,23.97
2022-09-06T10:43:51.070Z,24.18
2022-09-06T10:46:26.509Z,24.21
2022-09-06T10:48:54.157Z,24.33
2022-09-06T10:51:50.155Z,24.11
2022-09-06T10:54:23.204Z,24.06
2022-09-06T10:56:57.467Z,24.17
2022-09-06T11:02:16.695Z,24.44
2022-09-06T11:10:35.058Z,24.43
2022-09-06T11:13:32.465Z,24.53
2022-09-06T11:16:05.911Z,24.47
2022-09-06T11:18:37.870Z,24.30
2022-09-06T11:21:12.851Z,24.38
2022-09-06T11:24:16.081Z,24.22
2022-09-06T11:27:02.750Z,24.38
2022-09-06T11:29:32.044Z,24.48
2022-09-06T11:32:18.110Z,24.58
2022-09-06T11:34:58.014Z,24.63
2022-09-06T11:37:33.040Z,24.74
2022-09-06T11:42:55.763Z,24.79
2022-09-06T11:45:45.924Z,24.77
2022-09-06T11:48:27.019Z,24.76
2022-09-06T11:50:59.452Z,24.77
2022-09-06T11:53:35.154Z,24.75
2022-09-06T11:56:02.640Z,24.76
2022-09-06T11:58:59.889Z,24.60
2022-09-06T12:01:26.973Z,24.79
2022-09-06T12:06:37.969Z,24.94
2022-09-06T12:09:29.556Z,24.92
2022-09-06T12:11:59.329Z,24.87
2022-09-06T12:14:26.600Z,24.86
2022-09-06T12:17:05.310Z,24.85
2022-09-06T12:19:52.181Z,24.83
2022-09-06T12:22:32.881Z,24.89
2022-09-06T12:25:05.548Z,24.97
2022-09-06T12:27:40.110Z,24.95
2022-09-06T12:30:12.155Z,25.08
2022-09-06T12:32:52.519Z,24.97
2022-09-06T12:38:18.633Z,25.16
2022-09-06T12:40:48.782Z,25.15
2022-09-06T12:43:17.678Z,25.13
2022-09-06T12:45:47.581Z,25.39
2022-09-06T12:48:28.500Z,25.64
2022-09-06T12:51:22.046Z,25.71
2022-09-06T12:54:00.113Z,25.71
2022-09-06T12:56:29.607Z,25.78
2022-09-06T12:59:14.375Z,25.86
2022-09-06T13:01:49.636Z,25.77
2022-09-06T13:04:42.658Z,25.66
2022-09-06T13:07:12.999Z,25.59
2022-09-06T13:09:44.727Z,25.41
2022-09-06T13:12:33.481Z,25.71
2022-09-06T13:15:25.362Z,25.50
2022-09-06T13:17:55.324Z,25.40
2022-09-06T13:20:29.388Z,25.48
2022-09-06T13:23:11.588Z,25.53
2022-09-06T13:25:50.780Z,25.70
2022-09-06T13:28:30.315Z,25.74
2022-09-06T13:31:07.005Z,25.71
2022-09-06T13:33:36.055Z,25.57
2022-09-06T13:36:12.294Z,25.73
2022-09-06T13:38:42.378Z,25.79
2022-09-06T13:41:25.079Z,25.69
2022-09-06T13:44:04.607Z,25.50
2022-09-06T13:46:36.484Z,25.52
2022-09-06T13:49:11.025Z,25.49
2022-09-06T13:51:43.271Z,25.51
2022-09-06T13:54:13.150Z,25.50
2022-09-06T13:56:41.789Z,25.47
2022-09-06T13:59:12.413Z,25.40
2022-09-06T14:01:42.749Z,25.35
2022-09-06T14:04:12.887Z,25.33
2022-09-06T14:06:40.677Z,25.35
2022-09-06T14:09:12.655Z,25.39
2022-09-06T14:11:47.530Z,25.39
2022-09-06T14:14:39.443Z,25.39
2022-09-06T14:17:15.402Z,25.42
2022-09-06T14:19:46.488Z,25.43
2022-09-06T14:22:15.890Z,25.48
2022-09-06T14:24:43.996Z,25.35
2022-09-06T14:27:36.674Z,25.59
2022-09-06T14:30:05.036Z,25.58
2022-09-06T14:32:33.012Z,25.56
2022-09-06T14:35:02.238Z,25.75
2022-09-06T14:37:30.421Z,25.76
2022-09-06T14:40:29.337Z,25.87
2022-09-06T14:42:58.444Z,25.80
2022-09-06T14:45:25.868Z,25.78
2022-09-06T14:47:53.719Z,25.71
2022-09-06T14:50:21.848Z,25.70
2022-09-06T14:52:49.317Z,25.64
2022-09-06T14:55:18.092Z,25.74
2022-09-06T14:57:46.145Z,25.73
2022-09-06T15:00:14.391Z,25.61
2022-09-06T15:02:41.958Z,25.47
2022-09-06T15:05:11.050Z,25.41
2022-09-06T15:07:38.611Z,25.46
2022-09-06T15:10:06.600Z,25.37
2022-09-06T15:12:33.997Z,25.37
2022-09-06T15:15:03.108Z,25.35
2022-09-06T15:17:31.689Z,25.20
2022-09-06T15:19:58.811Z,25.14
2022-09-06T15:22:26.905Z,24.96
2022-09-06T15:24:54.506Z,24.82
2022-09-06T15:27:21.692Z,24.84
2022-09-06T15:29:48.951Z,24.71
2022-09-06T15:32:16.082Z,24.58
2022-09-06T15:34:43.582Z,24.49
2022-09-06T15:37:11.152Z,24.36
2022-09-06T15:39:38.448Z,24.31
2022-09-06T15:42:06.398Z,24.25
2022-09-06T15:44:34.578Z,24.21
2022-09-06T15:47:02.032Z,24.23
2022-09-06T15:49:31.961Z,24.21
2022-09-06T15:52:02.187Z,24.09
2022-09-06T15:54:48.717Z,23.98
2022-09-06T15:57:17.123Z,23.93
2022-09-06T15:59:45.189Z,23.91
2022-09-06T16:02:13.440Z,23.85
2022-09-06T16:04:40.750Z,23.84
2022-09-06T16:07:08.805Z,23.76
2022-09-06T16:09:36.166Z,23.70
2022-09-06T16:12:03.864Z,23.60
2022-09-06T16:14:31.803Z,23.59
2022-09-06T16:16:59.251Z,23.50
2022-09-06T16:19:26.800Z,23.41
2022-09-06T16:21:54.328Z,23.22
2022-09-06T16:24:22.838Z,23.12
2022-09-06T16:26:50.576Z,23.11
2022-09-06T16:29:19.275Z,23.05
2022-09-06T16:31:47.811Z,22.94
2022-09-06T16:34:15.805Z,22.88
2022-09-06T16:36:43.065Z,22.76
2022-09-06T16:39:11.105Z,22.70
2022-09-06T16:41:41.440Z,22.58
2022-09-06T16:44:10.575Z,22.42
2022-09-06T16:46:40.210Z,22.36
2022-09-06T16:49:07.546Z,22.28
2022-09-06T16:51:34.811Z,22.20
2022-09-06T16:54:02.944Z,22.03
2022-09-06T16:56:36.111Z,22.00
2022-09-06T16:59:08.325Z,21.92
2022-09-06T17:01:37.398Z,21.79
2022-09-06T17:04:05.811Z,21.70
2022-09-06T17:06:38.469Z,21.62
2022-09-06T17:09:05.753Z,21.49
2022-09-06T17:11:32.981Z,21.34
2022-09-06T17:14:04.082Z,21.32
2022-09-06T17:16:49.765Z,21.22
2022-09-06T17:19:22.979Z,21.13
2022-09-06T17:21:50.796Z,21.09
2022-09-06T17:24:18.381Z,21.06
2022-09-06T17:26:46.207Z,21.04
2022-09-06T17:29:13.373Z,20.93
2022-09-06T17:31:40.782Z,20.94
2022-09-06T17:34:08.121Z,21.00
2022-09-06T17:36:38.990Z,21.02
2022-09-06T17:39:14.015Z,20.98
2022-09-06T17:41:45.766Z,20.86
2022-09-06T17:44:15.489Z,20.93
2022-09-06T17:46:57.100Z,20.77
2022-09-06T17:49:31.111Z,20.66
2022-09-06T17:51:58.638Z,20.55
2022-09-06T17:54:26.011Z,20.52
2022-09-06T17:56:53.439Z,20.43
2022-09-06T17:59:20.646Z,20.52
2022-09-06T18:01:48.018Z,20.69
2022-09-06T18:04:15.457Z,20.73
2022-09-06T18:06:43.663Z,20.63
2022-09-06T18:09:14.869Z,20.56
2022-09-06T18:11:45.760Z,20.58
2022-09-06T18:14:16.987Z,20.60
2022-09-06T18:16:47.197Z,20.69
2022-09-06T18:19:16.149Z,20.72
2022-09-06T18:21:43.715Z,20.68
2022-09-06T18:24:13.869Z,20.69
2022-09-06T18:26:43.137Z,20.67
2022-09-06T18:29:17.874Z,20.63
2022-09-06T18:31:46.528Z,20.53
2022-09-06T18:34:16.606Z,20.51
2022-09-06T18:36:45.255Z,20.51
2022-09-06T18:39:13.402Z,20.43
2022-09-06T18:42:00.311Z,20.32
2022-09-06T18:44:32.300Z,20.28
2022-09-06T18:47:07.971Z,20.21
2022-09-06T18:49:38.506Z,20.13
2022-09-06T18:52:07.956Z,20.05
2022-09-06T18:54:36.649Z,19.84
2022-09-06T18:57:04.673Z,19.69
2022-09-06T18:59:32.278Z,19.58
2022-09-06T19:01:59.960Z,19.45
2022-09-06T19:04:28.637Z,19.39
2022-09-06T19:06:56.023Z,19.27
2022-09-06T19:09:23.768Z,19.19
2022-09-06T19:11:52.896Z,19.11
2022-09-06T19:14:20.680Z,19.01
2022-09-06T19:16:50.218Z,18.96
2022-09-06T19:19:18.322Z,18.89
2022-09-06T19:21:45.761Z,18.85
2022-09-06T19:24:15.204Z,18.80
2022-09-06T19:26:44.338Z,18.78
2022-09-06T19:29:17.207Z,18.73
2022-09-06T19:31:46.455Z,18.73
2022-09-06T19:34:19.126Z,18.78
2022-09-06T19:36:46.423Z,18.73
2022-09-06T19:39:15.874Z,18.55
2022-09-06T19:41:45.285Z,18.53
2022-09-06T19:44:14.050Z,18.50
2022-09-06T19:46:45.626Z,18.39
2022-09-06T19:49:19.297Z,18.37
2022-09-06T19:51:49.222Z,18.34
2022-09-06T19:54:17.754Z,18.26
2022-09-06T19:56:46.786Z,18.29
2022-09-06T19:59:15.407Z,18.30
2022-09-06T20:01:44.580Z,18.33
2022-09-06T20:04:13.929Z,18.17
2022-09-06T20:06:41.406Z,18.24
2022-09-06T20:09:10.462Z,18.20
2022-09-06T20:11:39.379Z,18.11
2022-09-06T20:14:07.293Z,18.07
2022-09-06T20:16:38.099Z,18.04
2022-09-06T20:19:07.951Z,18.02
2022-09-06T20:21:35.118Z,18.10
2022-09-06T20:24:02.513Z,18.19
2022-09-06T20:26:30.595Z,18.04
2022-09-06T20:29:03.301Z,17.99
2022-09-06T20:31:31.858Z,17.90
2022-09-06T20:34:01.123Z,17.81
2022-09-06T20:36:28.930Z,17.76
2022-09-06T20:38:56.357Z,17.75
2022-09-06T20:41:25.687Z,17.70
2022-09-06T20:43:57.758Z,17.65
2022-09-06T20:46:31.265Z,17.58
2022-09-06T20:49:02.015Z,17.44
2022-09-06T20:51:29.487Z,17.46
2022-09-06T20:53:58.999Z,17.45
2022-09-06T20:56:29.155Z,17.30
2022-09-06T20:59:00.716Z,17.28
2022-09-06T21:01:34.795Z,17.19
2022-09-06T21:04:04.169Z,17.14
2022-09-06T21:06:36.330Z,17.07
2022-09-06T21:09:12.331Z,16.90
2022-09-06T21:11:40.160Z,16.91
2022-09-06T21:14:08.035Z,16.76
2022-09-06T21:16:35.338Z,16.66
2022-09-06T21:19:05.640Z,16.64
2022-09-06T21:21:34.714Z,16.54
2022-09-06T21:24:03.878Z,16.53
2022-09-06T21:26:31.213Z,16.43
2022-09-06T21:28:58.880Z,16.31
2022-09-06T21:31:36.103Z,16.33
2022-09-06T21:34:06.877Z,16.29
2022-09-06T21:36:36.505Z,16.31
2022-09-06T21:39:15.290Z,16.21
2022-09-06T21:41:43.561Z,16.22
2022-09-06T21:44:12.218Z,16.22
2022-09-06T21:46:40.323Z,16.22
2022-09-06T21:49:10.383Z,16.20
2022-09-06T21:51:38.814Z,16.19
2022-09-06T21:54:06.571Z,16.22
2022-09-06T21:56:36.020Z,16.18
2022-09-06T21:59:04.859Z,16.10
2022-09-06T22:01:34.157Z,16.00
2022-09-06T22:04:02.441Z,15.99
2022-09-06T22:06:31.814Z,15.91
2022-09-06T22:09:01.346Z,15.85
2022-09-06T22:11:31.872Z,15.87
2022-09-06T22:14:04.046Z,15.83
2022-09-06T22:16:33.583Z,15.72
2022-09-06T22:19:01.572Z,15.77
2022-09-06T22:21:29.066Z,15.80
2022-09-06T22:24:01.488Z,15.81
2022-09-06T22:26:30.829Z,15.84
2022-09-06T22:29:03.390Z,15.75
2022-09-06T22:31:32.166Z,15.75
2022-09-06T22:33:59.858Z,15.78
2022-09-06T22:36:27.762Z,15.72
2022-09-06T22:38:58.731Z,15.76
2022-09-06T22:41:32.299Z,15.64
2022-09-06T22:44:01.068Z,15.55
2022-09-06T22:46:29.112Z,15.53
2022-09-06T22:48:56.467Z,15.46
2022-09-06T22:51:23.709Z,15.35
2022-09-06T22:53:51.047Z,15.55
2022-09-06T22:56:18.179Z,15.49
2022-09-06T22:58:45.462Z,15.49
2022-09-06T23:01:14.857Z,15.42
2022-09-06T23:03:42.812Z,15.53
2022-09-06T23:06:10.788Z,15.42
2022-09-06T23:08:39.847Z,15.35
2022-09-06T23:11:09.806Z,15.26
2022-09-06T23:13:37.342Z,15.19
2022-09-06T23:16:11.327Z,15.13
2022-09-06T23:18:38.767Z,15.07
2022-09-06T23:21:11.928Z,15.03
2022-09-06T23:23:40.238Z,15.03
2022-09-06T23:26:09.914Z,15.01
2022-09-06T23:28:37.667Z,14.94
2022-09-06T23:31:07.049Z,14.90
2022-09-06T23:33:36.336Z,14.88
2022-09-06T23:36:05.659Z,14.84
2022-09-06T23:38:37.624Z,14.82
2022-09-06T23:41:05.989Z,14.78
2022-09-06T23:43:33.363Z,14.75
2022-09-06T23:46:00.982Z,14.64
2022-09-06T23:48:29.340Z,14.66
2022-09-06T23:50:57.041Z,14.69
2022-09-06T23:53:24.302Z,14.65
2022-09-06T23:55:51.535Z,14.59
2022-09-06T23:58:18.774Z,14.60
